createdAt,value
2022-09-09T00:01:31.682Z,95222.13
2022-09-09T00:04:04.781Z,95226.63
2022-09-09T00:06:36.593Z,95214.50
2022-09-09T00:09:20.087Z,95196.59
2022-09-09T00:11:59.381Z,95193.97
2022-09-09T00:14:44.486Z,95191.34
2022-09-09T00:17:19.630Z,95178.44
2022-09-09T00:19:55.098Z,95185.56
2022-09-09T00:22:27.507Z,95196.09
2022-09-09T00:25:03.384Z,95195.53
2022-09-09T00:27:41.084Z,95179.78
2022-09-09T00:30:23.467Z,95189.25
2022-09-09T00:33:14.089Z,95185.53
2022-09-09T00:35:45.878Z,95181.88
2022-09-09T00:38:25.590Z,95182.38
2022-09-09T00:41:21.279Z,95178.72
2022-09-09T00:44:04.000Z,95179.22
2022-09-09T00:47:02.183Z,95154.50
2022-09-09T00:49:52.218Z,95170.28
2022-09-09T00:52:38.277Z,95172.41
2022-09-09T00:55:13.835Z,95182.13
2022-09-09T00:57:42.575Z,95186.59
2022-09-09T01:00:50.889Z,95186.59
2022-09-09T01:03:31.910Z,95181.34
2022-09-09T01:06:17.253Z,95187.66
2022-09-09T01:08:51.806Z,95172.91
2022-09-09T01:11:25.550Z,95158.97
2022-09-09T01:14:11.495Z,95177.66
2022-09-09T01:16:39.626Z,95162.88
2022-09-09T01:19:13.816Z,95180.28
2022-09-09T01:21:46.765Z,95178.97
2022-09-09T01:24:36.542Z,95178.16
2022-09-09T01:27:16.296Z,95162.88
2022-09-09T01:29:43.264Z,95166.53
2022-09-09T01:32:40.470Z,95162.38
2022-09-09T01:35:25.038Z,95167.63
2022-09-09T01:37:52.977Z,95161.81
2022-09-09T01:40:19.943Z,95161.28
2022-09-09T01:42:49.119Z,95153.66
2022-09-09T01:45:15.862Z,95172.88
2022-09-09T01:47:42.922Z,95168.91
2022-09-09T01:50:28.115Z,95169.44
2022-09-09T01:52:59.987Z,95184.97
2022-09-09T01:55:38.595Z,95178.41
2022-09-09T01:58:24.325Z,95191.28
2022-09-09T02:01:13.150Z,95193.41
2022-09-09T02:03:48.252Z,95181.25
2022-09-09T02:06:22.388Z,95194.94
2022-09-09T02:08:55.641Z,95183.09
2022-09-09T02:11:28.287Z,95177.03
2022-09-09T02:14:13.500Z,95178.59
2022-09-09T02:16:51.081Z,95186.78
2022-09-09T02:19:50.099Z,95181.25
2022-09-09T02:22:27.225Z,95178.59
2022-09-09T02:25:00.192Z,95157.00
2022-09-09T02:27:30.598Z,95175.72
2022-09-09T02:30:01.926Z,95167.28
2022-09-09T02:32:44.387Z,95179.13
2022-09-09T02:35:18.625Z,95173.84
2022-09-09T02:37:48.997Z,95173.31
2022-09-09T02:40:17.962Z,95161.19
2022-09-09T02:42:55.938Z,95173.59
2022-09-09T02:45:32.158Z,95175.19
2022-09-09T02:48:19.818Z,95168.06
2022-09-09T02:50:54.864Z,95172.25
2022-09-09T02:53:30.949Z,95162.28
2022-09-09T02:56:10.392Z,95173.31
2022-09-09T02:58:41.708Z,95163.84
2022-09-09T03:01:09.908Z,95150.66
2022-09-09T03:03:37.182Z,95151.69
2022-09-09T03:06:09.203Z,95174.34
2022-09-09T03:08:50.961Z,95162.75
2022-09-09T03:11:23.075Z,95156.44
2022-09-09T03:13:50.710Z,95166.97
2022-09-09T03:16:18.821Z,95160.88
2022-09-09T03:18:48.920Z,95186.38
2022-09-09T03:21:16.581Z,95175.31
2022-09-09T03:23:46.124Z,95151.84
2022-09-09T03:26:13.017Z,95177.41
2022-09-09T03:28:44.454Z,95183.75
2022-09-09T03:31:11.947Z,95184.78
2022-09-09T03:33:42.404Z,95187.38
2022-09-09T03:36:12.701Z,95192.63
2022-09-09T03:38:40.228Z,95185.75
2022-09-09T03:41:08.849Z,95178.91
2022-09-09T03:43:36.418Z,95166.28
2022-09-09T03:46:03.421Z,95169.16
2022-09-09T03:48:31.224Z,95174.19
2022-09-09T03:51:01.821Z,95192.56
2022-09-09T03:53:30.423Z,95182.53
2022-09-09T03:56:00.833Z,95196.75
2022-09-09T03:58:29.487Z,95197.78
2022-09-09T04:01:09.729Z,95189.13
2022-09-09T04:03:37.909Z,95179.94
2022-09-09T04:06:08.139Z,95171.25
2022-09-09T04:08:37.133Z,95174.00
2022-09-09T04:11:06.043Z,95189.19
2022-09-09T04:13:35.293Z,95192.78
2022-09-09T04:16:04.921Z,95203.31
2022-09-09T04:18:35.864Z,95192.25
2022-09-09T04:21:05.525Z,95203.91
2022-09-09T04:23:34.863Z,95193.41
2022-09-09T04:26:03.607Z,95197.94
2022-09-09T04:28:34.380Z,95199.59
2022-09-09T04:31:10.547Z,95200.94
2022-09-09T04:33:40.728Z,95195.19
2022-09-09T04:36:09.714Z,95180.72
2022-09-09T04:38:37.325Z,95198.94
2022-09-09T04:41:05.324Z,95176.31
2022-09-09T04:43:33.673Z,95175.84
2022-09-09T04:46:02.809Z,95183.28
2022-09-09T04:48:32.152Z,95188.56
2022-09-09T04:51:05.775Z,95181.75
2022-09-09T04:53:35.370Z,95150.44
2022-09-09T04:56:05.388Z,95193.91
2022-09-09T04:58:36.971Z,95183.13
2022-09-09T05:01:06.555Z,95189.72
2022-09-09T05:03:33.625Z,95188.16
2022-09-09T05:06:12.321Z,95178.69
2022-09-09T05:08:41.179Z,95181.34
2022-09-09T05:11:17.386Z,95189.78
2022-09-09T05:13:45.273Z,95170.28
2022-09-09T05:16:12.460Z,95154.47
2022-09-09T05:18:40.525Z,95163.97
2022-09-09T05:21:08.541Z,95174.47
2022-09-09T05:23:36.480Z,95167.09
2022-09-09T05:26:04.705Z,95173.91
2022-09-09T05:28:32.352Z,95169.16
2022-09-09T05:31:09.294Z,95161.97
2022-09-09T05:33:37.220Z,95160.34
2022-09-09T05:36:08.926Z,95162.34
2022-09-09T05:38:37.008Z,95159.88
2022-09-09T05:41:05.005Z,95158.72
2022-09-09T05:43:33.738Z,95168.69
2022-09-09T05:46:02.615Z,95158.34
2022-09-09T05:48:31.748Z,95162.41
2022-09-09T05:50:59.754Z,95167.81
2022-09-09T05:53:33.056Z,95165.59
2022-09-09T05:56:08.576Z,95180.25
2022-09-09T05:58:36.244Z,95174.81
2022-09-09T06:01:12.143Z,95173.09
2022-09-09T06:03:41.606Z,95170.84
2022-09-09T06:06:11.113Z,95172.28
2022-09-09T06:08:40.019Z,95179.50
2022-09-09T06:11:10.649Z,95172.50
2022-09-09T06:13:39.940Z,95178.66
2022-09-09T06:16:10.622Z,95183.25
2022-09-09T06:18:37.811Z,95188.41
2022-09-09T06:21:07.913Z,95185.09
2022-09-09T06:23:38.303Z,95187.53
2022-09-09T06:26:09.043Z,95187.38
2022-09-09T06:28:37.554Z,95171.91
2022-09-09T06:31:07.392Z,95188.75
2022-09-09T06:33:36.982Z,95188.44
2022-09-09T06:36:05.289Z,95197.72
2022-09-09T06:38:32.986Z,95207.03
2022-09-09T06:41:01.028Z,95170.09
2022-09-09T06:43:29.492Z,95181.50
2022-09-09T06:45:57.333Z,95196.59
2022-09-09T06:48:24.657Z,95193.78
2022-09-09T06:50:51.966Z,95171.88
2022-09-09T06:53:20.161Z,95177.19
2022-09-09T06:55:47.592Z,95178.91
2022-09-09T06:58:14.721Z,95162.22
2022-09-09T07:00:41.734Z,95180.47
2022-09-09T07:03:08.841Z,95193.38
2022-09-09T07:05:37.351Z,95196.09
2022-09-09T07:08:04.313Z,95203.75
2022-09-09T07:10:31.015Z,95209.97
2022-09-09T07:12:57.806Z,95190.47
2022-09-09T07:15:25.953Z,95200.22
2022-09-09T07:17:54.985Z,95201.81
2022-09-09T07:20:22.102Z,95196.84
2022-09-09T07:22:50.314Z,95195.97
2022-09-09T07:25:18.994Z,95202.63
2022-09-09T07:27:47.633Z,95192.94
2022-09-09T07:30:20.900Z,95190.50
2022-09-09T07:32:52.674Z,95198.34
2022-09-09T07:35:19.486Z,95196.84
2022-09-09T07:37:50.693Z,95194.03
2022-09-09T07:40:18.873Z,95198.91
2022-09-09T07:42:45.778Z,95201.66
2022-09-09T07:45:12.933Z,95183.16
2022-09-09T07:47:39.737Z,95188.81
2022-09-09T07:50:08.020Z,95193.84
2022-09-09T07:52:35.654Z,95198.84
2022-09-09T07:55:06.282Z,95193.81
2022-09-09T07:57:33.720Z,95200.91
2022-09-09T08:00:01.666Z,95203.88
2022-09-09T08:02:30.567Z,95207.66
2022-09-09T08:04:59.142Z,95202.41
2022-09-09T08:07:27.730Z,95202.38
2022-09-09T08:09:56.921Z,95205.00
2022-09-09T08:12:28.696Z,95206.97
2022-09-09T08:14:56.441Z,95204.88
2022-09-09T08:17:26.208Z,95195.47
2022-09-09T08:19:53.339Z,95208.19
2022-09-09T08:22:25.560Z,95203.56
2022-09-09T08:24:53.150Z,95203.44
2022-09-09T08:27:20.055Z,95205.72
2022-09-09T08:29:46.779Z,95201.22
2022-09-09T08:32:14.647Z,95204.94
2022-09-09T08:34:46.647Z,95204.88
2022-09-09T08:37:18.044Z,95203.28
2022-09-09T08:39:44.944Z,95194.56
2022-09-09T08:42:35.950Z,95198.59
2022-09-09T08:45:25.742Z,95199.38
2022-09-09T08:48:19.677Z,95195.72
2022-09-09T08:50:50.381Z,95171.63
2022-09-09T08:53:26.027Z,95189.41
2022-09-09T08:56:00.404Z,95188.81
2022-09-09T08:58:54.993Z,95192.06
2022-09-09T09:01:52.345Z,95196.19
2022-09-09T09:04:54.675Z,95187.28
2022-09-09T09:07:37.237Z,95187.94
2022-09-09T09:10:30.595Z,95186.97
2022-09-09T09:12:56.218Z,95182.06
2022-09-09T09:15:35.513Z,95179.84
2022-09-09T09:18:02.974Z,95184.75
2022-09-09T09:20:44.340Z,95190.13
2022-09-09T09:23:22.118Z,95185.00
2022-09-09T09:25:51.193Z,95186.91
2022-09-09T09:28:23.936Z,95185.34
2022-09-09T09:31:06.976Z,95180.19
2022-09-09T09:33:37.065Z,95177.59
2022-09-09T09:36:04.391Z,95166.50
2022-09-09T09:41:30.280Z,95188.66
2022-09-09T09:43:57.072Z,95179.66
2022-09-09T09:46:26.843Z,95185.59
2022-09-09T09:49:03.013Z,95181.69
2022-09-09T09:51:33.322Z,95190.19
2022-09-09T09:54:19.611Z,95180.00
2022-09-09T09:56:52.285Z,95174.13
2022-09-09T09:59:40.383Z,95175.13
2022-09-09T10:02:27.615Z,95176.34
2022-09-09T10:05:14.207Z,95162.97
2022-09-09T10:07:46.212Z,95164.69
2022-09-09T10:10:33.923Z,95161.66
2022-09-09T10:13:28.280Z,95156.34
2022-09-09T10:16:28.548Z,95167.84
2022-09-09T10:19:01.323Z,95176.50
2022-09-09T10:21:59.080Z,95164.50
2022-09-09T10:24:47.838Z,95166.81
2022-09-09T10:27:41.030Z,95167.38
2022-09-09T10:30:17.568Z,95172.53
2022-09-09T10:33:01.110Z,95175.78
2022-09-09T10:35:36.099Z,95169.47
2022-09-09T10:38:18.025Z,95169.66
2022-09-09T10:41:01.988Z,95159.59
2022-09-09T10:44:07.339Z,95170.91
2022-09-09T10:46:53.152Z,95170.63
2022-09-09T10:49:55.239Z,95169.09
2022-09-09T10:52:49.743Z,95170.81
2022-09-09T10:55:21.406Z,95168.72
2022-09-09T10:57:51.093Z,95175.41
2022-09-09T11:00:21.893Z,95167.88
2022-09-09T11:03:03.208Z,95165.09
2022-09-09T11:05:55.597Z,95146.47
2022-09-09T11:08:26.145Z,95166.59
2022-09-09T11:11:32.102Z,95156.81
2022-09-09T11:14:10.690Z,95169.03
2022-09-09T11:16:47.150Z,95162.88
2022-09-09T11:19:35.312Z,95163.97
2022-09-09T11:22:07.637Z,95160.13
2022-09-09T11:24:44.351Z,95160.38
2022-09-09T11:27:17.326Z,95152.13
2022-09-09T11:30:14.036Z,95153.03
2022-09-09T11:33:22.463Z,95155.22
2022-09-09T11:36:18.543Z,95141.72
2022-09-09T11:38:54.040Z,95142.88
2022-09-09T11:41:22.516Z,95139.75
2022-09-09T11:43:56.264Z,95134.19
2022-09-09T11:46:35.028Z,95140.97
2022-09-09T11:49:04.290Z,95122.81
2022-09-09T11:51:33.440Z,95117.09
2022-09-09T11:54:33.246Z,95110.63
2022-09-09T11:57:00.757Z,95095.72
2022-09-09T11:59:34.401Z,95096.06
2022-09-09T12:02:13.437Z,95104.66
2022-09-09T12:04:45.898Z,95060.94
2022-09-09T12:07:12.644Z,95083.72
2022-09-09T12:10:02.323Z,95079.25
2022-09-09T12:12:30.915Z,95085.72
2022-09-09T12:15:09.844Z,95088.84
2022-09-09T12:17:45.447Z,95093.41
2022-09-09T12:20:37.132Z,95101.97
2022-09-09T12:23:38.863Z,95095.47
2022-09-09T12:26:09.838Z,95086.38
2022-09-09T12:28:58.737Z,95091.16
2022-09-09T12:31:36.089Z,95080.25
2022-09-09T12:34:12.130Z,95075.97
2022-09-09T12:36:41.177Z,95074.09
2022-09-09T12:39:25.867Z,95077.69
2022-09-09T12:41:58.366Z,95079.91
2022-09-09T12:44:29.117Z,95069.31
2022-09-09T12:47:00.461Z,95050.81
2022-09-09T12:49:28.804Z,95056.19
2022-09-09T12:51:58.408Z,95058.22
2022-09-09T12:54:25.368Z,95064.28
2022-09-09T12:56:52.295Z,95040.84
2022-09-09T12:59:25.517Z,95047.69
2022-09-09T13:01:59.779Z,95049.66
2022-09-09T13:04:27.151Z,95039.72
2022-09-09T13:06:54.144Z,95044.22
2022-09-09T13:09:21.050Z,95049.50
2022-09-09T13:11:58.861Z,95039.41
2022-09-09T13:14:38.392Z,95042.63
2022-09-09T13:17:07.379Z,95044.81
2022-09-09T13:19:39.026Z,95051.34
2022-09-09T13:22:36.773Z,95050.31
2022-09-09T13:25:20.440Z,95039.13
2022-09-09T13:28:04.018Z,95040.09
2022-09-09T13:30:44.002Z,95041.47
2022-09-09T13:33:13.458Z,95036.59
2022-09-09T13:35:56.630Z,95030.69
2022-09-09T13:38:27.686Z,95031.31
2022-09-09T13:41:06.276Z,95021.16
2022-09-09T13:43:43.191Z,95023.28
2022-09-09T13:46:38.708Z,95024.84
2022-09-09T13:49:11.337Z,95027.44
2022-09-09T13:51:43.320Z,95026.22
2022-09-09T13:54:11.948Z,95021.97
2022-09-09T13:56:40.583Z,95027.00
2022-09-09T13:59:12.858Z,95021.28
2022-09-09T14:01:39.671Z,94998.75
2022-09-09T14:04:07.586Z,95009.47
2022-09-09T14:06:38.285Z,95006.81
2022-09-09T14:09:10.752Z,95015.03
2022-09-09T14:11:37.503Z,95009.56
2022-09-09T14:14:04.396Z,95003.78
2022-09-09T14:16:31.254Z,94989.50
2022-09-09T14:18:58.732Z,95011.44
2022-09-09T14:21:26.443Z,95010.31
2022-09-09T14:23:59.150Z,95005.97
2022-09-09T14:26:27.321Z,95007.53
2022-09-09T14:28:55.738Z,95008.78
2022-09-09T14:31:24.369Z,95010.09
2022-09-09T14:33:52.088Z,95008.03
2022-09-09T14:36:19.122Z,94995.72
2022-09-09T14:38:45.907Z,95006.88
2022-09-09T14:41:18.010Z,95004.78
2022-09-09T14:43:45.566Z,95004.41
2022-09-09T14:46:16.719Z,95014.72
2022-09-09T14:48:44.973Z,95023.25
2022-09-09T14:51:30.020Z,94996.16
2022-09-09T14:54:00.063Z,95009.66
2022-09-09T14:56:30.731Z,95006.69
2022-09-09T14:58:59.504Z,94998.78
2022-09-09T15:01:30.454Z,95002.59
2022-09-09T15:03:59.277Z,95004.66
2022-09-09T15:06:28.581Z,95006.50
2022-09-09T15:08:55.652Z,95008.31
2022-09-09T15:11:25.686Z,95005.34
2022-09-09T15:13:54.254Z,95010.06
2022-09-09T15:16:22.873Z,95015.25
2022-09-09T15:18:55.300Z,95011.44
2022-09-09T15:21:25.266Z,95022.44
2022-09-09T15:23:52.648Z,95021.19
2022-09-09T15:26:20.008Z,95014.59
2022-09-09T15:28:48.592Z,95020.88
2022-09-09T15:31:20.099Z,95026.59
2022-09-09T15:34:06.498Z,95024.59
2022-09-09T15:36:34.274Z,95028.69
2022-09-09T15:39:02.220Z,95025.34
2022-09-09T15:41:29.842Z,95014.47
2022-09-09T15:44:01.567Z,95002.56
2022-09-09T15:46:38.636Z,95002.66
2022-09-09T15:49:15.888Z,94999.94
2022-09-09T15:51:48.401Z,94997.16
2022-09-09T15:54:21.958Z,94997.94
2022-09-09T15:56:52.946Z,94999.91
2022-09-09T15:59:19.778Z,94991.81
2022-09-09T16:01:47.089Z,94979.94
2022-09-09T16:04:14.004Z,94975.34
2022-09-09T16:06:41.035Z,94979.94
2022-09-09T16:09:08.691Z,94957.22
2022-09-09T16:11:38.573Z,94961.59
2022-09-09T16:14:07.706Z,94970.06
2022-09-09T16:16:36.342Z,94970.84
2022-09-09T16:19:08.451Z,94972.72
2022-09-09T16:21:40.943Z,94969.44
2022-09-09T16:24:09.927Z,94968.41
2022-09-09T16:26:39.230Z,94972.84
2022-09-09T16:29:06.673Z,94970.72
2022-09-09T16:31:33.990Z,94972.78
2022-09-09T16:34:01.315Z,94975.06
2022-09-09T16:36:35.124Z,94959.28
2022-09-09T16:39:06.018Z,94967.75
2022-09-09T16:41:33.596Z,94962.91
2022-09-09T16:44:03.385Z,94959.06
2022-09-09T16:46:32.673Z,94972.19
2022-09-09T16:49:00.586Z,94966.38
2022-09-09T16:51:33.142Z,94970.13
2022-09-09T16:54:02.495Z,94955.34
2022-09-09T16:56:31.549Z,94962.00
2022-09-09T16:59:01.169Z,94963.84
2022-09-09T17:01:32.713Z,94970.78
2022-09-09T17:04:04.871Z,94965.00
2022-09-09T17:06:38.512Z,94977.59
2022-09-09T17:09:08.979Z,94986.16
2022-09-09T17:11:36.774Z,94975.91
2022-09-09T17:14:04.622Z,94989.13
2022-09-09T17:16:37.131Z,94986.34
2022-09-09T17:19:05.415Z,94985.13
2022-09-09T17:21:33.254Z,94992.69
2022-09-09T17:24:00.874Z,94997.56
2022-09-09T17:26:31.102Z,94989.91
2022-09-09T17:29:01.694Z,94992.41
2022-09-09T17:31:32.281Z,94987.38
2022-09-09T17:34:00.042Z,94981.72
2022-09-09T17:36:32.337Z,94993.94
2022-09-09T17:39:00.837Z,94972.78
2022-09-09T17:41:30.566Z,94995.78
2022-09-09T17:43:58.216Z,94988.56
2022-09-09T17:46:30.717Z,94983.22
2022-09-09T17:49:00.522Z,95005.09
2022-09-09T17:51:30.760Z,95007.13
2022-09-09T17:54:01.239Z,95014.47
2022-09-09T17:56:31.813Z,95003.00
2022-09-09T17:59:00.277Z,95010.31
2022-09-09T18:01:39.140Z,94993.31
2022-09-09T18:04:08.073Z,95017.84
2022-09-09T18:06:37.952Z,95010.44
2022-09-09T18:09:08.272Z,95007.56
2022-09-09T18:11:39.799Z,95022.91
2022-09-09T18:14:06.952Z,95019.41
2022-09-09T18:16:37.675Z,95018.44
2022-09-09T18:19:06.614Z,95020.59
2022-09-09T18:21:34.934Z,95024.94
2022-09-09T18:24:07.175Z,95015.38
2022-09-09T18:26:35.118Z,95025.34
2022-09-09T18:29:06.114Z,95030.50
2022-09-09T18:31:33.200Z,95028.94
2022-09-09T18:34:02.286Z,95027.97
2022-09-09T18:36:47.351Z,95040.16
2022-09-09T18:39:17.735Z,95041.84
2022-09-09T18:41:50.293Z,95042.13
2022-09-09T18:44:19.708Z,95039.78
2022-09-09T18:46:47.829Z,95036.25
2022-09-09T18:49:15.403Z,95038.59
2022-09-09T18:51:44.359Z,95047.63
2022-09-09T18:54:19.617Z,95049.22
2022-09-09T18:56:47.872Z,95040.75
2022-09-09T18:59:20.427Z,95043.28
2022-09-09T19:01:49.197Z,95042.69
2022-09-09T19:04:19.013Z,95042.69
2022-09-09T19:06:58.011Z,95042.69
2022-09-09T19:09:27.927Z,95036.78
2022-09-09T19:11:54.700Z,95025.81
2022-09-09T19:14:21.944Z,95026.59
2022-09-09T19:16:48.806Z,95022.16
2022-09-09T19:19:19.815Z,95018.56
2022-09-09T19:21:47.346Z,95015.53
2022-09-09T19:24:22.904Z,95014.66
2022-09-09T19:26:53.023Z,95001.50
2022-09-09T19:29:23.342Z,95005.47
2022-09-09T19:32:29.302Z,95003.53
2022-09-09T19:34:38.405Z,95013.16
2022-09-09T19:37:05.710Z,95009.44
2022-09-09T19:39:34.619Z,95006.31
2022-09-09T19:42:02.040Z,95005.69
2022-09-09T19:44:29.459Z,94995.31
2022-09-09T19:46:56.279Z,95001.00
2022-09-09T19:49:23.141Z,94993.94
2022-09-09T19:51:50.164Z,95003.16
2022-09-09T19:54:16.965Z,94990.59
2022-09-09T19:56:44.342Z,94991.19
2022-09-09T19:59:12.982Z,94987.28
2022-09-09T20:01:44.711Z,94988.66
2022-09-09T20:04:13.777Z,94969.81
2022-09-09T20:06:44.480Z,94985.53
2022-09-09T20:09:14.787Z,94977.56
2022-09-09T20:11:43.328Z,94978.66
2022-09-09T20:14:11.830Z,94973.94
2022-09-09T20:16:39.856Z,94970.19
2022-09-09T20:19:08.529Z,94970.63
2022-09-09T20:21:45.172Z,94975.13
2022-09-09T20:24:16.358Z,94970.25
2022-09-09T20:26:44.206Z,94937.47
2022-09-09T20:29:16.204Z,94970.63
2022-09-09T20:31:44.398Z,94971.19
2022-09-09T20:34:18.674Z,94964.91
2022-09-09T20:36:46.325Z,94963.34
2022-09-09T20:39:19.745Z,94963.94
2022-09-09T20:41:47.758Z,94967.28
2022-09-09T20:44:20.160Z,94956.50
2022-09-09T20:46:48.810Z,94968.38
2022-09-09T20:49:18.668Z,94971.59
2022-09-09T20:51:47.446Z,94963.56
2022-09-09T20:54:17.666Z,94971.69
2022-09-09T20:56:46.646Z,94985.53
2022-09-09T20:59:16.716Z,94975.13
2022-09-09T21:01:44.511Z,94977.88
2022-09-09T21:04:12.489Z,94979.63
2022-09-09T21:06:39.546Z,94979.44
2022-09-09T21:09:06.842Z,94984.53
2022-09-09T21:11:35.478Z,94979.34
2022-09-09T21:14:02.977Z,94978.84
2022-09-09T21:16:29.830Z,94970.91
2022-09-09T21:18:56.638Z,94972.97
2022-09-09T21:21:23.672Z,94986.88
2022-09-09T21:23:54.763Z,94978.25
2022-09-09T21:26:22.447Z,94977.66
2022-09-09T21:28:49.730Z,94988.66
2022-09-09T21:31:18.863Z,94989.22
2022-09-09T21:33:46.599Z,94989.81
2022-09-09T21:36:14.808Z,94971.56
2022-09-09T21:38:42.472Z,94973.13
2022-09-09T21:41:13.181Z,94978.41
2022-09-09T21:43:42.006Z,94977.78
2022-09-09T21:46:11.616Z,94981.84
2022-09-09T21:48:39.678Z,94979.31
2022-09-09T21:51:09.901Z,94984.59
2022-09-09T21:53:36.955Z,94975.59
2022-09-09T21:56:07.060Z,94969.88
2022-09-09T21:58:35.265Z,94957.31
2022-09-09T22:01:08.211Z,94978.91
2022-09-09T22:03:38.244Z,94977.31
2022-09-09T22:06:09.535Z,94977.31
2022-09-09T22:08:36.845Z,94972.31
2022-09-09T22:11:12.452Z,94956.81
2022-09-09T22:13:39.764Z,94963.59
2022-09-09T22:16:09.321Z,94960.66
2022-09-09T22:18:37.066Z,94956.16
2022-09-09T22:21:23.117Z,94965.56
2022-09-09T22:23:59.085Z,94970.28
2022-09-09T22:26:27.889Z,94971.88
2022-09-09T22:28:57.226Z,94964.44
2022-09-09T22:31:25.571Z,94965.97
2022-09-09T22:33:52.716Z,94965.84
2022-09-09T22:36:20.535Z,94957.63
2022-09-09T22:38:49.159Z,94958.41
2022-09-09T22:41:17.360Z,94940.03
2022-09-09T22:43:47.530Z,94962.69
2022-09-09T22:46:15.878Z,94966.38
2022-09-09T22:48:45.123Z,94953.06
2022-09-09T22:51:14.171Z,94958.78
2022-09-09T22:53:42.579Z,94947.81
2022-09-09T22:56:17.327Z,94947.25
2022-09-09T22:58:44.476Z,94945.22
2022-09-09T23:01:17.505Z,94951.13
2022-09-09T23:03:46.388Z,94945.50
2022-09-09T23:06:22.529Z,94948.16
2022-09-09T23:08:52.068Z,94932.44
2022-09-09T23:11:19.197Z,94947.16
2022-09-09T23:13:54.094Z,94943.44
2022-09-09T23:16:26.347Z,94940.28
2022-09-09T23:18:55.255Z,94940.84
2022-09-09T23:21:26.477Z,94942.44
2022-09-09T23:23:54.889Z,94941.47
2022-09-09T23:26:23.304Z,94939.88
2022-09-09T23:28:52.509Z,94931.03
2022-09-09T23:31:22.776Z,94931.44
2022-09-09T23:33:49.679Z,94921.53
2022-09-09T23:36:20.886Z,94926.72
2022-09-09T23:38:48.255Z,94929.44
2022-09-09T23:41:21.190Z,94928.75
2022-09-09T23:43:49.865Z,94925.41
2022-09-09T23:46:20.441Z,94917.69
2022-09-09T23:48:51.216Z,94923.00
2022-09-09T23:51:24.090Z,94916.63
2022-09-09T23:53:57.073Z,94920.00
2022-09-09T23:56:29.936Z,94913.50
2022-09-09T23:58:56.788Z,94911.50
